createdAt,value
2018-03-02T00:00:16.230Z,8.10
2018-03-02T00:02:43.694Z,5.28
2018-03-02T00:05:11.182Z,4.85
2018-03-02T00:07:38.636Z,4.60
2018-03-02T00:10:06.095Z,5.18
2018-03-02T00:12:33.590Z,5.07
2018-03-02T00:15:01.041Z,4.35
2018-03-02T00:17:28.515Z,4.90
2018-03-02T00:19:56.010Z,5.10
2018-03-02T00:22:24.230Z,3.20
2018-03-02T00:24:51.690Z,6.97
2018-03-02T00:27:19.182Z,7.25
2018-03-02T00:29:46.648Z,5.15
2018-03-02T00:32:14.126Z,4.00
2018-03-02T00:34:42.357Z,6.82
2018-03-02T00:37:09.837Z,6.25
2018-03-02T00:39:37.293Z,5.32
2018-03-02T00:42:04.778Z,3.95
2018-03-02T00:44:32.270Z,6.10
2018-03-02T00:46:59.729Z,4.10
2018-03-02T00:49:27.250Z,6.37
2018-03-02T00:51:55.494Z,6.90
2018-03-02T00:54:22.972Z,3.95
2018-03-02T00:56:51.222Z,4.78
2018-03-02T00:59:18.697Z,6.72
2018-03-02T01:01:46.145Z,3.55
2018-03-02T01:04:13.630Z,4.75
2018-03-02T01:06:41.858Z,10.70
2018-03-02T01:09:09.342Z,4.28
2018-03-02T01:11:36.839Z,5.53
2018-03-02T01:14:05.066Z,4.30
2018-03-02T01:16:32.531Z,4.80
2018-03-02T01:19:00.035Z,4.40
2018-03-02T01:21:27.494Z,6.57
2018-03-02T01:23:54.974Z,5.93
2018-03-02T01:26:22.433Z,6.68
2018-03-02T01:28:49.912Z,4.68
2018-03-02T01:31:17.405Z,7.60
2018-03-02T01:33:45.631Z,4.78
2018-03-02T01:36:13.093Z,4.70
2018-03-02T01:38:40.572Z,6.45
2018-03-02T01:41:08.051Z,7.57
2018-03-02T01:43:35.546Z,2.72
2018-03-02T01:46:02.997Z,5.15
2018-03-02T01:48:30.530Z,7.28
2018-03-02T01:50:58.778Z,8.00
2018-03-02T01:53:26.263Z,6.72
2018-03-02T01:55:54.486Z,5.85
2018-03-02T01:58:22.011Z,7.03
2018-03-02T02:00:50.226Z,3.95
2018-03-02T02:03:17.679Z,5.80
2018-03-02T02:05:45.154Z,5.55
2018-03-02T02:08:13.409Z,5.53
2018-03-02T02:10:40.865Z,5.70
2018-03-02T02:13:08.337Z,5.57
2018-03-02T02:15:35.798Z,3.27
2018-03-02T02:18:03.282Z,2.50
2018-03-02T02:20:30.748Z,8.30
2018-03-02T02:22:58.201Z,7.50
2018-03-02T02:25:25.678Z,4.68
2018-03-02T02:27:53.914Z,5.95
2018-03-02T02:30:21.399Z,7.28
2018-03-02T02:32:48.857Z,7.75
2018-03-02T02:35:16.342Z,5.03
2018-03-02T02:37:43.831Z,6.25
2018-03-02T02:40:11.298Z,3.95
2018-03-02T02:42:38.777Z,4.37
2018-03-02T02:45:06.255Z,6.40
2018-03-02T02:47:34.514Z,6.60
2018-03-02T02:50:01.998Z,4.18
2018-03-02T02:52:29.487Z,4.30
2018-03-02T02:54:56.962Z,7.28
2018-03-02T02:57:24.418Z,5.82
2018-03-02T02:59:51.891Z,8.05
2018-03-02T03:02:19.366Z,4.72
2018-03-02T03:04:46.862Z,6.82
2018-03-02T03:07:14.337Z,6.65
2018-03-02T03:09:41.801Z,5.93
2018-03-02T03:12:09.295Z,5.07
2018-03-02T03:14:36.758Z,5.90
2018-03-02T03:17:04.229Z,7.37
2018-03-02T03:19:31.705Z,7.78
2018-03-02T03:21:59.190Z,6.93
2018-03-02T03:24:26.646Z,7.03
2018-03-02T03:26:54.153Z,7.12
2018-03-02T03:29:21.605Z,5.00
2018-03-02T03:31:49.057Z,7.30
2018-03-02T03:34:16.537Z,4.45
2018-03-02T03:36:44.764Z,7.82
2018-03-02T03:39:12.302Z,6.78
2018-03-02T03:41:39.772Z,5.18
2018-03-02T03:44:07.232Z,4.87
2018-03-02T03:46:34.713Z,5.85
2018-03-02T03:49:02.189Z,8.15
2018-03-02T03:51:29.649Z,9.43
2018-03-02T03:53:57.121Z,8.40
2018-03-02T03:56:25.390Z,8.30
2018-03-02T03:58:52.845Z,4.68
2018-03-02T04:01:20.329Z,6.45
2018-03-02T04:03:47.823Z,10.52
2018-03-02T04:06:15.278Z,5.10
2018-03-02T04:08:42.819Z,6.53
2018-03-02T04:11:10.273Z,9.68
2018-03-02T04:13:37.753Z,6.32
2018-03-02T04:16:05.213Z,9.35
2018-03-02T04:18:32.693Z,7.50
2018-03-02T04:21:00.177Z,4.97
2018-03-02T04:23:27.630Z,5.25
2018-03-02T04:25:55.104Z,4.18
2018-03-02T04:28:22.682Z,9.52
2018-03-02T04:30:50.177Z,9.88
2018-03-02T04:33:17.638Z,7.12
2018-03-02T04:35:45.127Z,7.95
2018-03-02T04:38:12.714Z,8.40
2018-03-02T04:40:40.199Z,6.05
2018-03-02T04:43:07.885Z,5.70
2018-03-02T04:45:35.418Z,5.43
2018-03-02T04:48:02.875Z,7.50
2018-03-02T04:50:30.356Z,9.32
2018-03-02T04:52:57.879Z,9.55
2018-03-02T04:55:25.358Z,7.12
2018-03-02T04:57:52.811Z,3.87
2018-03-02T05:00:20.306Z,6.25
2018-03-02T05:02:47.767Z,6.78
2018-03-02T05:05:15.222Z,6.37
2018-03-02T05:07:42.698Z,7.45
2018-03-02T05:10:10.149Z,6.55
2018-03-02T05:12:37.630Z,12.07
2018-03-02T05:15:05.098Z,5.72
2018-03-02T05:17:32.578Z,10.73
2018-03-02T05:20:00.078Z,6.22
2018-03-02T05:22:27.538Z,6.57
2018-03-02T05:24:54.989Z,7.78
2018-03-02T05:27:22.468Z,9.43
2018-03-02T05:29:50.785Z,10.63
2018-03-02T05:32:18.245Z,8.73
2018-03-02T05:34:45.817Z,8.57
2018-03-02T05:37:13.272Z,8.57
2018-03-02T05:39:40.767Z,8.25
2018-03-02T05:42:08.226Z,7.35
2018-03-02T05:44:35.697Z,8.00
2018-03-02T05:47:03.926Z,10.73
2018-03-02T05:49:31.411Z,8.85
2018-03-02T05:51:58.866Z,8.68
2018-03-02T05:54:26.334Z,6.30
2018-03-02T05:56:54.050Z,7.53
2018-03-02T05:59:21.518Z,5.75
2018-03-02T06:01:49.010Z,9.93
2018-03-02T06:04:16.463Z,5.65
2018-03-02T06:06:43.922Z,8.60
2018-03-02T06:09:11.399Z,8.63
2018-03-02T06:11:38.877Z,6.15
2018-03-02T06:14:06.338Z,8.97
2018-03-02T06:16:33.858Z,7.87
2018-03-02T06:19:01.286Z,6.50
2018-03-02T06:21:28.774Z,6.32
2018-03-02T06:23:57.013Z,9.85
2018-03-02T06:26:24.498Z,4.78
2018-03-02T06:28:52.021Z,11.05
2018-03-02T06:31:19.518Z,7.75
2018-03-02T06:33:47.037Z,9.15
2018-03-02T06:36:14.505Z,8.02
2018-03-02T06:38:42.005Z,12.43
2018-03-02T06:41:09.476Z,6.28
2018-03-02T06:43:37.726Z,11.15
2018-03-02T06:46:05.210Z,7.93
2018-03-02T06:48:33.459Z,9.80
2018-03-02T06:51:00.954Z,6.47
2018-03-02T06:53:29.193Z,8.32
2018-03-02T06:55:56.673Z,3.78
2018-03-02T06:58:24.961Z,6.75
2018-03-02T07:00:53.218Z,7.43
2018-03-02T07:03:20.687Z,10.48
2018-03-02T07:05:49.113Z,7.78
2018-03-02T07:08:17.385Z,10.45
2018-03-02T07:10:44.854Z,10.93
2018-03-02T07:13:12.356Z,9.07
2018-03-02T07:15:39.813Z,8.37
2018-03-02T07:18:07.294Z,7.68
2018-03-02T07:20:35.544Z,11.82
2018-03-02T07:23:03.031Z,12.18
2018-03-02T07:25:30.517Z,7.53
2018-03-02T07:27:57.991Z,12.63
2018-03-02T07:30:25.453Z,7.75
2018-03-02T07:32:52.955Z,10.25
2018-03-02T07:35:20.416Z,11.12
2018-03-02T07:37:47.916Z,11.57
2018-03-02T07:40:15.373Z,9.98
2018-03-02T07:42:43.609Z,9.80
2018-03-02T07:45:11.111Z,7.40
2018-03-02T07:47:38.581Z,12.27
2018-03-02T07:50:06.081Z,9.13
2018-03-02T07:52:34.323Z,8.25
2018-03-02T07:55:01.807Z,8.75
2018-03-02T07:57:30.064Z,8.98
2018-03-02T07:59:57.553Z,10.02
2018-03-02T08:02:25.782Z,8.18
2018-03-02T08:04:53.286Z,10.43
2018-03-02T08:07:21.526Z,9.55
2018-03-02T08:09:48.977Z,8.55
2018-03-02T08:12:16.462Z,11.43
2018-03-02T08:14:43.917Z,7.90
2018-03-02T08:17:11.377Z,6.37
2018-03-02T08:19:38.889Z,10.20
2018-03-02T08:22:06.347Z,8.38
2018-03-02T08:24:33.806Z,9.13
2018-03-02T08:27:01.293Z,10.52
2018-03-02T08:29:28.786Z,10.13
2018-03-02T08:31:56.236Z,8.05
2018-03-02T08:34:23.731Z,8.50
2018-03-02T08:36:51.204Z,11.15
2018-03-02T08:39:18.701Z,13.93
2018-03-02T08:41:46.950Z,11.88
2018-03-02T08:44:14.429Z,9.03
2018-03-02T08:46:41.923Z,10.30
2018-03-02T08:49:09.434Z,11.95
2018-03-02T08:51:36.923Z,10.85
2018-03-02T08:54:04.415Z,10.02
2018-03-02T08:56:31.881Z,8.75
2018-03-02T08:58:59.380Z,13.98
2018-03-02T09:01:26.870Z,12.48
2018-03-02T09:03:54.359Z,9.43
2018-03-02T09:06:21.824Z,16.98
2018-03-02T09:08:49.302Z,8.93
2018-03-02T09:11:16.822Z,10.88
2018-03-02T09:13:44.282Z,8.77
2018-03-02T09:16:11.749Z,10.30
2018-03-02T09:18:39.294Z,12.95
2018-03-02T09:21:06.767Z,8.48
2018-03-02T09:23:34.250Z,10.60
2018-03-02T09:26:01.744Z,14.50
2018-03-02T09:28:29.207Z,14.38
2018-03-02T09:30:56.666Z,15.20
2018-03-02T09:33:24.910Z,8.95
2018-03-02T09:35:52.369Z,12.43
2018-03-02T09:38:19.854Z,6.93
2018-03-02T09:40:47.331Z,13.60
2018-03-02T09:43:14.809Z,11.70
2018-03-02T09:45:42.294Z,17.37
2018-03-02T09:48:10.617Z,11.77
2018-03-02T09:50:38.107Z,12.40
2018-03-02T09:53:05.591Z,8.60
2018-03-02T09:55:33.084Z,11.88
2018-03-02T09:58:00.569Z,13.57
2018-03-02T10:00:28.068Z,11.00
2018-03-02T10:02:55.545Z,11.50
2018-03-02T10:05:23.802Z,14.10
2018-03-02T10:07:51.277Z,9.95
2018-03-02T10:10:18.780Z,11.50
2018-03-02T10:12:46.250Z,15.43
2018-03-02T10:15:13.749Z,12.93
2018-03-02T10:17:41.242Z,9.13
2018-03-02T10:20:08.713Z,13.18
2018-03-02T10:22:36.181Z,14.10
2018-03-02T10:25:03.666Z,11.12
2018-03-02T10:27:31.133Z,14.07
2018-03-02T10:29:58.630Z,11.82
2018-03-02T10:32:26.090Z,15.00
2018-03-02T10:34:53.573Z,10.98
2018-03-02T10:37:21.049Z,10.70
2018-03-02T10:39:48.529Z,11.30
2018-03-02T10:42:16.010Z,14.45
2018-03-02T10:44:43.511Z,9.53
2018-03-02T10:47:10.987Z,12.05
2018-03-02T10:49:38.458Z,12.43
2018-03-02T10:52:05.942Z,12.30
2018-03-02T10:54:34.177Z,11.23
2018-03-02T10:57:01.670Z,10.48
2018-03-02T10:59:29.901Z,15.88
2018-03-02T11:01:57.386Z,11.43
2018-03-02T11:07:24.647Z,10.70
2018-03-02T11:09:52.137Z,13.50
2018-03-02T11:12:20.390Z,10.98
2018-03-02T11:14:47.879Z,13.67
2018-03-02T11:17:15.342Z,15.80
2018-03-02T11:19:42.829Z,10.10
2018-03-02T11:22:10.294Z,11.43
2018-03-02T11:24:37.773Z,7.22
2018-03-02T11:27:05.258Z,11.40
2018-03-02T11:29:33.545Z,10.45
2018-03-02T11:32:01.807Z,16.73
2018-03-02T11:34:29.269Z,10.65
2018-03-02T11:36:57.505Z,14.45
2018-03-02T11:39:24.993Z,15.75
2018-03-02T11:41:52.478Z,13.43
2018-03-02T11:44:19.973Z,13.40
2018-03-02T11:46:47.474Z,10.93
2018-03-02T11:49:14.937Z,7.47
2018-03-02T11:51:42.409Z,16.12
2018-03-02T11:54:09.916Z,14.85
2018-03-02T11:56:37.373Z,16.70
2018-03-02T11:59:04.913Z,17.17
2018-03-02T12:01:32.387Z,11.75
2018-03-02T12:03:59.845Z,9.82
2018-03-02T12:06:27.329Z,16.55
2018-03-02T12:08:54.817Z,10.02
2018-03-02T12:11:22.281Z,12.83
2018-03-02T12:13:49.767Z,16.90
2018-03-02T12:16:17.240Z,9.23
2018-03-02T12:18:44.733Z,14.60
2018-03-02T12:21:12.990Z,13.30
2018-03-02T12:23:40.499Z,11.50
2018-03-02T12:26:08.007Z,9.30
2018-03-02T12:28:35.492Z,13.35
2018-03-02T12:31:02.962Z,17.90
2018-03-02T12:33:30.448Z,11.15
2018-03-02T12:35:57.922Z,17.77
2018-03-02T12:38:25.402Z,14.60
2018-03-02T12:40:52.861Z,16.53
2018-03-02T12:43:20.342Z,17.47
2018-03-02T12:45:48.917Z,13.73
2018-03-02T12:48:17.116Z,18.73
2018-03-02T12:50:45.345Z,15.73
2018-03-02T12:53:12.820Z,16.27
2018-03-02T12:55:40.277Z,19.13
2018-03-02T12:58:07.748Z,18.10
2018-03-02T13:00:35.282Z,16.73
2018-03-02T13:03:02.700Z,15.27
2018-03-02T13:05:30.194Z,19.60
2018-03-02T13:07:57.649Z,13.27
2018-03-02T13:10:25.137Z,19.53
2018-03-02T13:12:52.594Z,15.87
2018-03-02T13:15:20.067Z,15.73
2018-03-02T13:17:47.546Z,13.17
2018-03-02T13:20:15.081Z,10.10
2018-03-02T13:22:43.325Z,12.40
2018-03-02T13:25:10.793Z,16.50
2018-03-02T13:27:50.019Z,11.50
2018-03-02T13:30:17.502Z,16.53
2018-03-02T13:35:43.683Z,9.67
2018-03-02T13:38:11.162Z,15.00
2018-03-02T13:40:50.330Z,18.30
2018-03-02T13:43:17.806Z,13.10
2018-03-02T13:45:45.282Z,14.20
2018-03-02T13:51:23.625Z,16.87
2018-03-02T13:53:51.101Z,14.47
2018-03-02T13:56:30.393Z,18.77
2018-03-02T13:58:57.949Z,16.80
2018-03-02T14:01:26.188Z,19.53
2018-03-02T14:04:05.501Z,15.23
2018-03-02T14:06:32.990Z,20.50
2018-03-02T14:09:00.473Z,24.17
2018-03-02T14:11:28.717Z,21.40
2018-03-02T14:13:56.180Z,19.53
2018-03-02T14:16:23.658Z,18.20
2018-03-02T14:18:51.166Z,12.40
2018-03-02T14:21:18.620Z,17.30
2018-03-02T14:23:46.094Z,11.60
2018-03-02T14:26:13.573Z,17.47
2018-03-02T14:28:41.041Z,22.47
2018-03-02T14:31:08.518Z,20.77
2018-03-02T14:33:35.981Z,17.13
2018-03-02T14:36:03.468Z,15.70
2018-03-02T14:38:30.958Z,20.63
2018-03-02T14:40:58.450Z,21.20
2018-03-02T14:43:26.670Z,22.60
2018-03-02T14:45:54.125Z,13.00
2018-03-02T14:48:21.671Z,24.20
2018-03-02T14:50:49.129Z,24.50
2018-03-02T14:53:16.619Z,21.03
2018-03-02T14:55:44.097Z,17.00
2018-03-02T14:58:11.585Z,23.00
2018-03-02T15:00:39.054Z,22.67
2018-03-02T15:03:06.536Z,15.90
2018-03-02T15:05:34.026Z,18.33
2018-03-02T15:08:01.490Z,20.90
2018-03-02T15:10:28.949Z,17.90
2018-03-02T15:12:56.436Z,17.30
2018-03-02T15:15:24.686Z,22.50
2018-03-02T15:17:52.191Z,20.20
2018-03-02T15:20:20.422Z,14.40
2018-03-02T15:22:47.993Z,23.57
2018-03-02T15:25:15.473Z,14.77
2018-03-02T15:27:42.943Z,21.47
2018-03-02T15:30:10.433Z,23.80
2018-03-02T15:32:37.894Z,25.77
2018-03-02T15:35:05.375Z,18.67
2018-03-02T15:37:32.861Z,18.43
2018-03-02T15:40:00.325Z,16.37
2018-03-02T15:42:27.807Z,19.00
2018-03-02T15:44:55.282Z,15.67
2018-03-02T15:47:22.771Z,23.57
2018-03-02T15:49:50.263Z,19.80
2018-03-02T15:52:17.731Z,22.53
2018-03-02T15:54:45.219Z,18.97
2018-03-02T15:57:12.853Z,20.90
2018-03-02T15:59:40.314Z,22.63
2018-03-02T16:02:07.798Z,20.53
2018-03-02T16:04:35.282Z,22.77
2018-03-02T16:07:02.764Z,17.27
2018-03-02T16:09:31.063Z,21.03
2018-03-02T16:11:58.526Z,19.37
2018-03-02T16:14:25.985Z,10.90
2018-03-02T16:16:53.479Z,24.33
2018-03-02T16:19:20.962Z,23.97
2018-03-02T16:21:48.470Z,23.50
2018-03-02T16:24:15.930Z,18.83
2018-03-02T16:26:43.389Z,14.57
2018-03-02T16:29:10.882Z,20.27
2018-03-02T16:31:38.347Z,25.87
2018-03-02T16:34:06.582Z,14.10
2018-03-02T16:36:34.057Z,18.50
2018-03-02T16:39:01.556Z,22.07
2018-03-02T16:41:29.806Z,22.67
2018-03-02T16:43:57.262Z,22.40
2018-03-02T16:46:24.743Z,18.17
2018-03-02T16:48:52.994Z,18.87
2018-03-02T16:51:20.883Z,23.30
2018-03-02T16:53:48.566Z,14.73
2018-03-02T16:56:16.109Z,18.87
2018-03-02T16:58:43.569Z,22.10
2018-03-02T17:01:11.813Z,12.47
2018-03-02T17:03:39.290Z,17.43
2018-03-02T17:06:06.778Z,22.67
2018-03-02T17:08:34.318Z,13.10
2018-03-02T17:11:02.569Z,19.85
2018-03-02T17:13:30.094Z,12.88
2018-03-02T17:15:57.599Z,7.33
2018-03-02T17:18:25.065Z,17.60
2018-03-02T17:20:53.333Z,16.55
2018-03-02T17:23:20.929Z,15.73
2018-03-02T17:25:48.612Z,23.03
2018-03-02T17:28:16.821Z,21.53
2018-03-02T17:30:44.566Z,21.35
2018-03-02T17:33:12.033Z,12.73
2018-03-02T17:35:39.805Z,16.70
2018-03-02T17:38:07.412Z,24.00
2018-03-02T17:40:35.120Z,21.10
2018-03-02T17:43:02.656Z,18.80
2018-03-02T17:45:30.297Z,13.47
2018-03-02T17:47:57.806Z,14.20
2018-03-02T17:50:25.284Z,21.47
2018-03-02T17:52:53.529Z,16.80
2018-03-02T17:55:21.030Z,29.70
2018-03-02T17:57:49.260Z,29.23
2018-03-02T18:00:16.770Z,21.23
2018-03-02T18:02:45.021Z,17.00
2018-03-02T18:05:12.497Z,16.45
2018-03-02T18:07:40.757Z,17.15
2018-03-02T18:10:08.290Z,18.42
2018-03-02T18:12:35.901Z,18.87
2018-03-02T18:15:04.118Z,19.50
2018-03-02T18:17:31.721Z,17.42
2018-03-02T18:19:59.190Z,17.33
2018-03-02T18:22:27.469Z,21.45
2018-03-02T18:24:55.708Z,27.37
2018-03-02T18:27:23.261Z,21.43
2018-03-02T18:29:50.840Z,16.52
2018-03-02T18:32:18.339Z,19.47
2018-03-02T18:34:45.896Z,22.73
2018-03-02T18:37:13.438Z,18.33
2018-03-02T18:39:40.911Z,10.13
2018-03-02T18:42:08.453Z,20.90
2018-03-02T18:44:36.697Z,12.40
2018-03-02T18:47:04.213Z,21.05
2018-03-02T18:49:31.731Z,16.60
2018-03-02T18:51:59.224Z,16.80
2018-03-02T18:54:26.734Z,20.15
2018-03-02T18:56:54.201Z,10.00
2018-03-02T18:59:21.688Z,12.35
2018-03-02T19:01:49.947Z,14.25
2018-03-02T19:04:17.438Z,21.65
2018-03-02T19:06:44.906Z,17.40
2018-03-02T19:09:12.386Z,17.77
2018-03-02T19:11:39.883Z,20.58
2018-03-02T19:14:07.384Z,16.77
2018-03-02T19:16:34.830Z,20.30
2018-03-02T19:19:02.307Z,20.30
2018-03-02T19:21:29.778Z,15.20
2018-03-02T19:23:57.259Z,16.05
2018-03-02T19:26:24.741Z,15.48
2018-03-02T19:28:53.025Z,20.08
2018-03-02T19:31:21.302Z,13.88
2018-03-02T19:33:49.525Z,16.70
2018-03-02T19:36:17.733Z,15.18
2018-03-02T19:38:45.426Z,22.13
2018-03-02T19:41:12.921Z,19.85
2018-03-02T19:43:40.424Z,21.35
2018-03-02T19:46:08.124Z,19.52
2018-03-02T19:48:35.657Z,22.25
2018-03-02T19:51:03.922Z,20.17
2018-03-02T19:53:31.434Z,14.15
2018-03-02T19:55:59.103Z,21.50
2018-03-02T19:58:26.676Z,19.75
2018-03-02T20:00:54.205Z,20.30
2018-03-02T20:03:22.396Z,20.40
2018-03-02T20:05:50.057Z,15.05
2018-03-02T20:08:17.742Z,11.07
2018-03-02T20:10:46.205Z,16.65
2018-03-02T20:13:14.901Z,22.40
2018-03-02T20:15:43.382Z,22.58
2018-03-02T20:18:11.079Z,20.83
2018-03-02T20:20:38.665Z,19.27
2018-03-02T20:23:06.283Z,24.35
2018-03-02T20:25:33.827Z,22.55
2018-03-02T20:28:01.377Z,25.30
2018-03-02T20:30:29.061Z,11.32
2018-03-02T20:32:56.801Z,19.67
2018-03-02T20:35:24.533Z,19.50
2018-03-02T20:37:52.152Z,20.58
2018-03-02T20:40:20.467Z,23.70
2018-03-02T20:42:48.859Z,18.42
2018-03-02T20:45:16.388Z,13.48
2018-03-02T20:47:44.181Z,23.83
2018-03-02T20:50:11.899Z,19.35
2018-03-02T20:52:39.558Z,24.70
2018-03-02T20:55:07.190Z,20.62
2018-03-02T20:57:34.918Z,18.83
2018-03-02T21:00:02.646Z,18.55
2018-03-02T21:02:30.356Z,19.83
2018-03-02T21:04:58.223Z,23.10
2018-03-02T21:07:26.024Z,16.98
2018-03-02T21:09:53.657Z,22.35
2018-03-02T21:12:22.057Z,24.17
2018-03-02T21:14:49.685Z,24.10
2018-03-02T21:17:17.466Z,21.35
2018-03-02T21:19:45.087Z,23.73
2018-03-02T21:22:12.566Z,19.60
2018-03-02T21:24:40.821Z,16.35
2018-03-02T21:27:08.296Z,18.08
2018-03-02T21:29:35.790Z,22.62
2018-03-02T21:32:03.256Z,21.00
2018-03-02T21:34:30.835Z,15.52
2018-03-02T21:36:58.261Z,13.45
2018-03-02T21:39:25.717Z,17.15
2018-03-02T21:41:53.209Z,18.65
2018-03-02T21:44:20.777Z,21.87
2018-03-02T21:46:48.280Z,13.55
2018-03-02T21:49:15.862Z,21.48
2018-03-02T21:51:43.397Z,21.90
2018-03-02T21:54:11.646Z,17.08
2018-03-02T21:56:39.106Z,23.00
2018-03-02T21:59:06.607Z,18.80
2018-03-02T22:01:34.066Z,20.08
2018-03-02T22:04:01.546Z,21.12
2018-03-02T22:06:29.047Z,18.27
2018-03-02T22:08:56.542Z,17.92
2018-03-02T22:11:24.012Z,18.25
2018-03-02T22:13:51.505Z,11.17
2018-03-02T22:16:19.025Z,21.00
2018-03-02T22:18:46.561Z,19.40
2018-03-02T22:21:14.806Z,15.52
2018-03-02T22:23:42.278Z,23.25
2018-03-02T22:26:09.779Z,25.62
2018-03-02T22:28:37.266Z,25.40
2018-03-02T22:31:04.758Z,15.32
2018-03-02T22:33:32.222Z,13.45
2018-03-02T22:35:59.728Z,19.80
2018-03-02T22:38:27.214Z,18.75
2018-03-02T22:40:54.679Z,12.20
2018-03-02T22:43:22.174Z,13.70
2018-03-02T22:45:50.406Z,23.97
2018-03-02T22:48:17.936Z,19.48
2018-03-02T22:50:45.426Z,21.27
2018-03-02T22:53:12.901Z,12.15
2018-03-02T22:55:40.373Z,20.37
2018-03-02T22:58:07.871Z,22.25
2018-03-02T23:00:35.361Z,23.80
2018-03-02T23:03:02.998Z,18.70
2018-03-02T23:05:30.467Z,24.80
2018-03-02T23:07:57.953Z,24.23
2018-03-02T23:10:25.438Z,24.15
2018-03-02T23:12:52.946Z,25.83
2018-03-02T23:15:20.410Z,23.35
2018-03-02T23:17:47.878Z,23.17
2018-03-02T23:20:15.361Z,18.05
2018-03-02T23:22:42.821Z,16.10
2018-03-02T23:25:10.341Z,21.87
2018-03-02T23:27:37.851Z,25.42
2018-03-02T23:30:05.279Z,25.62
2018-03-02T23:32:32.769Z,22.60
2018-03-02T23:35:00.232Z,23.55
2018-03-02T23:37:27.728Z,17.15
2018-03-02T23:39:55.184Z,20.67
2018-03-02T23:42:22.681Z,21.17
2018-03-02T23:44:50.133Z,25.47
2018-03-02T23:47:17.594Z,22.75
2018-03-02T23:49:45.114Z,19.80
2018-03-02T23:52:12.582Z,25.00
2018-03-02T23:54:40.101Z,22.27
2018-03-02T23:57:07.564Z,16.98
2018-03-02T23:59:35.054Z,27.58
